Time;durP1;ratioP1;P1;durP2;ratioP2;P2;SDS_P1;SDS_P2;PMS_P1;PMS_P2;Temp;Humidity;BMP_temperature;BMP_pressure;BME280_temperature;BME280_humidity;BME280_pressure;Samples;Min_cycle;Max_cycle;Signal;HPM_P1;HPM_P2
2021/12/07 00:01:54;;;;;;;32.65;15.65;;;8.30;97.60;;;;;;5075150;28;20025;-64
2021/12/07 00:04:21;;;;;;;92.55;20.65;;;8.30;97.70;;;;;;5075061;28;20024;-64
2021/12/07 00:06:47;;;;;;;47.60;18.92;;;8.30;97.70;;;;;;5074729;28;20091;-64
2021/12/07 00:09:15;;;;;;;39.70;18.88;;;8.30;97.60;;;;;;5074818;28;20482;-64
2021/12/07 00:11:43;;;;;;;42.55;20.05;;;8.30;97.70;;;;;;5074695;28;20029;-64
2021/12/07 00:14:14;;;;;;;40.17;19.25;;;8.40;97.70;;;;;;5074707;28;20100;-63
2021/12/07 00:16:44;;;;;;;54.65;23.05;;;8.30;97.70;;;;;;5074871;28;20017;-64
2021/12/07 00:19:11;;;;;;;46.22;22.20;;;8.40;97.80;;;;;;5074595;28;20016;-63
2021/12/07 00:21:38;;;;;;;49.88;21.98;;;8.40;97.80;;;;;;5074541;28;20028;-64
2021/12/07 00:24:06;;;;;;;50.95;23.63;;;8.50;97.70;;;;;;5074615;28;20134;-64
2021/12/07 00:26:32;;;;;;;45.15;22.15;;;8.50;97.70;;;;;;5074471;28;20020;-64
2021/12/07 00:28:59;;;;;;;47.08;21.00;;;8.50;97.70;;;;;;5074468;28;20039;-63
2021/12/07 00:31:29;;;;;;;48.05;22.85;;;8.50;97.80;;;;;;5074292;28;20032;-63
2021/12/07 00:34:55;;;;;;;40.95;19.80;;;8.60;97.70;;;;;;5074289;28;20021;-63
2021/12/07 00:36:48;;;;;;;42.78;19.33;;;8.60;97.70;;;;;;5071158;28;20487;-63
2021/12/07 00:39:16;;;;;;;51.38;21.65;;;8.60;97.70;;;;;;5074174;28;20032;-64
2021/12/07 00:41:42;;;;;;;46.17;21.38;;;8.60;97.70;;;;;;5074290;28;20122;-64
2021/12/07 00:44:08;;;;;;;41.72;19.30;;;8.60;97.60;;;;;;5074159;28;20027;-63
2021/12/07 00:46:34;;;;;;;53.55;22.75;;;8.60;97.50;;;;;;5074067;28;20046;-63
2021/12/07 00:49:00;;;;;;;51.13;24.70;;;8.60;97.50;;;;;;5074039;28;20020;-63
2021/12/07 00:51:26;;;;;;;51.20;25.08;;;8.60;97.50;;;;;;5073940;28;20084;-64
2021/12/07 00:53:52;;;;;;;58.85;28.42;;;8.70;97.50;;;;;;5073944;28;20028;-62
2021/12/07 00:56:18;;;;;;;58.90;27.63;;;8.70;97.50;;;;;;5072682;28;20375;-64
2021/12/07 00:58:44;;;;;;;58.83;27.23;;;8.70;97.50;;;;;;5073850;28;20012;-64
2021/12/07 01:01:16;;;;;;;54.50;25.13;;;8.70;97.50;;;;;;5073939;28;20028;-62
2021/12/07 01:03:42;;;;;;;54.03;27.00;;;8.70;97.50;;;;;;5073898;28;20055;-65
2021/12/07 01:06:26;;;;;;;51.63;25.65;;;8.80;97.40;;;;;;5073726;28;20044;-63
2021/12/07 01:25:11;;;;;;;38.13;20.17;;;8.90;97.40;;;;;;5073352;28;20446;-64
2021/12/07 01:27:37;;;;;;;41.45;21.73;;;8.90;97.40;;;;;;5073240;28;20127;-62
2021/12/07 01:30:35;;;;;;;38.33;21.30;;;8.90;97.40;;;;;;5073254;28;20032;-63
2021/12/07 02:14:15;;;;;;;32.45;17.05;;;8.90;97.00;;;;;;5069410;28;20419;-63
2021/12/07 02:16:41;;;;;;;33.80;17.85;;;9.00;97.10;;;;;;5072256;28;20182;-62
2021/12/07 02:19:07;;;;;;;30.08;17.10;;;8.90;97.10;;;;;;5072163;28;20099;-64
2021/12/07 02:21:32;;;;;;;79.70;18.95;;;8.90;97.10;;;;;;5071915;28;20021;-64
2021/12/07 02:23:58;;;;;;;29.92;17.10;;;8.90;97.10;;;;;;5072236;28;20025;-64
2021/12/07 02:26:24;;;;;;;60.08;17.13;;;9.00;97.10;;;;;;5072045;28;20067;-63
2021/12/07 02:28:52;;;;;;;41.42;15.82;;;9.00;97.10;;;;;;5072072;28;20456;-63
2021/12/07 02:31:19;;;;;;;59.45;16.35;;;9.00;97.10;;;;;;5072199;28;20040;-64
2021/12/07 02:33:45;;;;;;;31.83;14.60;;;9.00;97.10;;;;;;5071959;28;20025;-64
2021/12/07 02:36:11;;;;;;;25.50;14.75;;;9.00;97.10;;;;;;5072087;28;20020;-63
2021/12/07 02:38:37;;;;;;;24.45;12.98;;;9.00;97.10;;;;;;5072036;28;20444;-65
2021/12/07 02:41:04;;;;;;;28.27;13.77;;;9.00;97.20;;;;;;5071905;28;20051;-64
2021/12/07 02:43:30;;;;;;;21.05;11.75;;;9.00;97.20;;;;;;5071823;28;20126;-64
2021/12/07 02:45:56;;;;;;;26.35;12.95;;;9.00;97.20;;;;;;5071934;28;20032;-63
2021/12/07 02:48:23;;;;;;;21.67;11.55;;;9.10;97.10;;;;;;5071730;28;20020;-64
2021/12/07 02:50:50;;;;;;;20.17;10.80;;;9.10;97.10;;;;;;5071830;28;20048;-64
2021/12/07 02:53:18;;;;;;;21.65;12.15;;;9.10;97.10;;;;;;5071623;28;20039;-63
2021/12/07 02:55:44;;;;;;;19.52;11.00;;;9.10;97.10;;;;;;5071739;28;20380;-64
2021/12/07 02:58:10;;;;;;;20.15;10.98;;;9.10;97.10;;;;;;5070423;28;20031;-64
2021/12/07 03:00:44;;;;;;;20.05;11.30;;;9.10;97.10;;;;;;5071619;28;20044;-63
2021/12/07 03:03:12;;;;;;;19.13;11.18;;;9.10;97.00;;;;;;5071481;28;20029;-64
2021/12/07 03:27:52;;;;;;;23.88;10.48;;;9.30;96.80;;;;;;5071762;28;20031;-63
2021/12/07 03:30:18;;;;;;;21.52;12.80;;;9.30;96.80;;;;;;5071379;28;20613;-64
2021/12/07 03:32:44;;;;;;;22.00;10.88;;;9.30;96.70;;;;;;5071282;28;20439;-63
2021/12/07 03:35:10;;;;;;;16.83;10.45;;;9.30;96.70;;;;;;5074278;28;20056;-62
2021/12/07 03:37:36;;;;;;;17.83;10.35;;;9.30;96.70;;;;;;5076101;28;20031;-63
2021/12/07 03:40:02;;;;;;;20.80;11.43;;;9.30;96.70;;;;;;5075609;28;20094;-63
2021/12/07 03:42:28;;;;;;;19.17;10.90;;;9.30;96.60;;;;;;5075389;28;20033;-64
2021/12/07 03:44:53;;;;;;;22.73;12.50;;;9.30;96.60;;;;;;5075364;28;20388;-64
2021/12/07 03:47:19;;;;;;;18.65;11.88;;;9.20;96.50;;;;;;5075199;28;20031;-65
2021/12/07 03:49:45;;;;;;;20.20;12.20;;;9.30;96.60;;;;;;5075311;28;20074;-64
2021/12/07 03:52:10;;;;;;;21.10;11.27;;;9.20;96.50;;;;;;5075257;28;20037;-64
2021/12/07 03:54:36;;;;;;;23.27;12.68;;;9.20;96.50;;;;;;5075403;28;20032;-64
2021/12/07 03:57:02;;;;;;;21.50;12.95;;;9.20;96.40;;;;;;5075277;28;20024;-64
2021/12/07 03:59:28;;;;;;;24.05;14.27;;;9.30;96.50;;;;;;5075116;28;20024;-63
2021/12/07 04:01:53;;;;;;;24.25;14.30;;;9.20;96.40;;;;;;5074951;28;20218;-62
2021/12/07 04:04:19;;;;;;;40.63;14.70;;;9.20;96.40;;;;;;5074921;28;20070;-63
2021/12/07 04:06:45;;;;;;;24.30;14.27;;;9.20;96.50;;;;;;5074868;28;20028;-64
2021/12/07 04:09:11;;;;;;;27.70;12.77;;;9.20;96.50;;;;;;5074771;28;20063;-63
2021/12/07 04:11:37;;;;;;;28.88;12.32;;;9.20;96.50;;;;;;5074803;28;20017;-64
2021/12/07 04:14:02;;;;;;;51.55;14.40;;;9.20;96.50;;;;;;5074523;28;20545;-63
2021/12/07 04:16:28;;;;;;;24.30;14.40;;;9.30;96.50;;;;;;5073351;28;20360;-63
2021/12/07 04:18:54;;;;;;;56.10;16.42;;;9.30;96.40;;;;;;5074765;28;20028;-64
2021/12/07 04:21:20;;;;;;;32.33;15.02;;;9.30;96.40;;;;;;5074871;28;20492;-65
2021/12/07 04:23:46;;;;;;;31.88;13.75;;;9.20;96.40;;;;;;5073139;28;20029;-64
2021/12/07 04:26:13;;;;;;;45.40;15.82;;;9.20;96.50;;;;;;5074368;28;20032;-63
2021/12/07 04:28:40;;;;;;;33.88;16.08;;;9.20;96.40;;;;;;5074478;28;20033;-64
2021/12/07 04:31:07;;;;;;;32.15;14.70;;;9.30;96.40;;;;;;5074360;28;20024;-64
2021/12/07 04:33:34;;;;;;;24.48;13.55;;;9.30;96.40;;;;;;5073058;28;20506;-64
2021/12/07 04:36:00;;;;;;;25.05;13.77;;;9.30;96.50;;;;;;5074171;28;20409;-64
2021/12/07 04:38:26;;;;;;;44.80;15.00;;;9.20;96.50;;;;;;5074279;28;20028;-63
2021/12/07 04:40:52;;;;;;;57.78;17.17;;;9.30;96.50;;;;;;5074185;28;20036;-65
2021/12/07 04:43:18;;;;;;;27.48;13.52;;;9.30;96.40;;;;;;5073003;28;20485;-63
2021/12/07 04:59:05;;;;;;;41.22;15.73;;;9.30;96.40;;;;;;5042445;28;20109;-63
2021/12/07 05:01:32;;;;;;;52.08;18.17;;;9.30;96.30;;;;;;5073829;28;20021;-64
2021/12/07 05:04:02;;;;;;;22.73;14.52;;;9.30;96.40;;;;;;5073637;28;20031;-64
2021/12/07 05:06:31;;;;;;;26.27;14.50;;;9.30;96.50;;;;;;5073629;28;20479;-65
2021/12/07 05:09:04;;;;;;;32.25;15.10;;;9.30;96.50;;;;;;5074001;28;20036;-65
2021/12/07 05:11:47;;;;;;;69.95;18.67;;;9.30;96.50;;;;;;5073639;28;20020;-63
2021/12/07 05:38:19;;;;;;;23.15;13.30;;;9.30;96.50;;;;;;5072905;28;20047;-65
2021/12/07 05:40:44;;;;;;;41.67;15.75;;;9.30;96.60;;;;;;5073132;28;20471;-63
2021/12/07 05:43:10;;;;;;;41.70;16.65;;;9.30;96.70;;;;;;5073100;28;20078;-64
2021/12/07 05:45:38;;;;;;;23.27;14.18;;;9.30;96.70;;;;;;5072862;28;20025;-64
2021/12/07 05:48:06;;;;;;;29.92;17.20;;;9.30;96.80;;;;;;5072598;28;20032;-64
2021/12/07 05:50:35;;;;;;;27.95;15.55;;;9.30;96.90;;;;;;5072481;28;20028;-63
2021/12/07 05:53:02;;;;;;;49.88;16.70;;;9.30;96.90;;;;;;5072610;28;20029;-63
2021/12/07 05:55:28;;;;;;;22.65;13.88;;;9.40;97.00;;;;;;5073089;28;20090;-64
2021/12/07 05:57:55;;;;;;;37.05;16.67;;;9.40;97.00;;;;;;5071823;28;20402;-64
2021/12/07 06:00:27;;;;;;;30.13;16.15;;;9.40;97.10;;;;;;5072638;28;20059;-64
2021/12/07 06:02:58;;;;;;;27.75;15.88;;;9.40;97.10;;;;;;5072480;28;20025;-63
2021/12/07 06:05:26;;;;;;;23.45;13.90;;;9.40;97.10;;;;;;5072450;28;20072;-65
2021/12/07 06:07:52;;;;;;;20.33;12.77;;;9.40;97.10;;;;;;5072389;28;20024;-64
2021/12/07 06:10:18;;;;;;;21.17;13.07;;;9.40;97.10;;;;;;5072114;28;20063;-64
2021/12/07 06:12:44;;;;;;;41.20;17.42;;;9.40;97.20;;;;;;5071840;28;20115;-63
2021/12/07 06:15:11;;;;;;;22.27;14.18;;;9.40;97.10;;;;;;5072380;28;20412;-64
2021/12/07 06:17:37;;;;;;;29.05;15.18;;;9.50;97.10;;;;;;5072263;28;20475;-64
2021/12/07 06:20:05;;;;;;;26.58;15.43;;;9.50;97.10;;;;;;5071948;28;20032;-63
2021/12/07 06:22:31;;;;;;;20.90;12.93;;;9.50;97.10;;;;;;5072065;28;20016;-64
2021/12/07 06:24:56;;;;;;;18.75;11.70;;;9.50;97.10;;;;;;5071900;28;20036;-65
2021/12/07 06:27:22;;;;;;;20.70;12.93;;;9.50;97.10;;;;;;5072078;28;20032;-65
2021/12/07 06:29:48;;;;;;;20.27;11.30;;;9.50;97.10;;;;;;5070887;28;20112;-65
2021/12/07 06:32:14;;;;;;;21.33;13.90;;;9.50;97.10;;;;;;5072321;28;20531;-65
2021/12/07 06:34:39;;;;;;;24.50;13.63;;;9.50;97.20;;;;;;5072005;28;20017;-65
2021/12/07 06:37:06;;;;;;;23.30;13.25;;;9.50;97.30;;;;;;5072023;28;20483;-66
2021/12/07 06:39:32;;;;;;;29.48;15.15;;;9.50;97.50;;;;;;5072086;28;20023;-65
2021/12/07 06:41:58;;;;;;;42.33;19.10;;;9.50;97.60;;;;;;5071780;28;20031;-66
2021/12/07 06:44:23;;;;;;;29.02;14.40;;;9.50;97.70;;;;;;5071613;28;20016;-65
2021/12/07 06:46:50;;;;;;;31.98;15.48;;;9.50;97.80;;;;;;5071727;28;20027;-64
2021/12/07 06:49:17;;;;;;;36.70;18.02;;;9.50;97.90;;;;;;5071331;28;20014;-65
2021/12/07 06:51:44;;;;;;;38.75;19.42;;;9.50;98.10;;;;;;5071401;28;20028;-64
2021/12/07 06:54:10;;;;;;;38.70;19.13;;;9.50;98.10;;;;;;5071693;28;20033;-65
2021/12/07 06:56:36;;;;;;;26.85;14.73;;;9.50;98.20;;;;;;5071667;28;20099;-65
2021/12/07 06:59:03;;;;;;;37.83;17.65;;;9.50;98.30;;;;;;5071805;28;20077;-64
2021/12/07 07:01:28;;;;;;;45.97;23.20;;;9.50;98.40;;;;;;5071622;28;20390;-63
2021/12/07 07:03:54;;;;;;;42.72;22.05;;;9.60;98.40;;;;;;5071518;28;20028;-66
2021/12/07 07:06:20;;;;;;;49.38;24.83;;;9.60;98.50;;;;;;5071504;28;20082;-65
2021/12/07 07:08:46;;;;;;;45.60;21.88;;;9.50;98.50;;;;;;5071668;28;20035;-65
2021/12/07 07:11:12;;;;;;;36.85;18.60;;;9.50;98.60;;;;;;5070597;28;20056;-64
2021/12/07 07:13:38;;;;;;;33.55;17.40;;;9.60;98.80;;;;;;5071359;28;20045;-66
2021/12/07 07:16:04;;;;;;;34.75;18.63;;;9.60;99.00;;;;;;5071645;28;20348;-65
2021/12/07 07:18:30;;;;;;;32.65;19.42;;;9.70;99.10;;;;;;5071102;28;20016;-64
2021/12/07 07:20:56;;;;;;;31.95;18.58;;;9.70;98.90;;;;;;5071434;28;20031;-65
2021/12/07 07:23:25;;;;;;;30.10;17.88;;;9.70;99.00;;;;;;5071423;28;20021;-65
2021/12/07 07:25:51;;;;;;;31.67;19.55;;;9.70;99.20;;;;;;5071300;28;20449;-64
2021/12/07 07:28:17;;;;;;;37.28;23.75;;;9.70;99.30;;;;;;5071056;28;20020;-64
2021/12/07 07:30:43;;;;;;;37.83;25.00;;;9.80;99.20;;;;;;5071201;28;20028;-64
2021/12/07 07:33:08;;;;;;;44.03;27.85;;;9.80;99.20;;;;;;5071277;28;20039;-65
2021/12/07 07:35:34;;;;;;;43.15;28.40;;;9.90;99.20;;;;;;5071332;28;20036;-65
2021/12/07 07:38:00;;;;;;;39.85;26.08;;;9.90;99.00;;;;;;5071234;28;20391;-63
2021/12/07 07:40:26;;;;;;;42.67;25.05;;;9.90;98.90;;;;;;5071133;28;20098;-64
2021/12/07 07:42:52;;;;;;;36.85;22.38;;;9.90;99.00;;;;;;5070999;28;20174;-64
2021/12/07 07:45:19;;;;;;;39.08;23.52;;;10.00;99.00;;;;;;5071246;28;20523;-64
2021/12/07 07:47:45;;;;;;;42.30;24.00;;;10.00;99.20;;;;;;5071652;28;20565;-66
2021/12/07 07:50:12;;;;;;;43.20;24.95;;;10.00;99.30;;;;;;5071381;28;20036;-63
2021/12/07 07:52:39;;;;;;;49.50;26.83;;;10.00;99.30;;;;;;5071101;28;20165;-65
2021/12/07 07:55:05;;;;;;;47.97;27.08;;;10.10;99.30;;;;;;5069985;28;20021;-64
2021/12/07 07:57:31;;;;;;;55.92;32.83;;;10.10;99.50;;;;;;5071119;28;20021;-66
2021/12/07 07:59:57;;;;;;;57.60;34.58;;;10.20;99.50;;;;;;5070850;28;20087;-64
2021/12/07 08:02:23;;;;;;;56.95;32.67;;;10.30;99.20;;;;;;5070855;28;20029;-64
2021/12/07 08:04:48;;;;;;;55.63;31.60;;;10.30;99.00;;;;;;5070862;28;20033;-64
2021/12/07 08:07:14;;;;;;;51.95;29.02;;;10.30;99.00;;;;;;5070877;28;20109;-64
2021/12/07 08:09:40;;;;;;;50.97;28.90;;;10.30;99.00;;;;;;5071025;28;20024;-63
2021/12/07 08:12:06;;;;;;;53.28;30.33;;;10.30;98.80;;;;;;5070748;28;20472;-64
2021/12/07 08:14:33;;;;;;;49.17;29.60;;;10.40;98.80;;;;;;5070875;28;20119;-65
2021/12/07 08:17:03;;;;;;;50.88;27.48;;;10.40;99.00;;;;;;5071626;28;20024;-64
2021/12/07 08:19:29;;;;;;;50.10;30.88;;;10.40;99.20;;;;;;5071467;28;20083;-64
2021/12/07 08:21:54;;;;;;;52.20;31.25;;;10.50;99.10;;;;;;5074720;28;20049;-64
2021/12/07 08:24:20;;;;;;;45.38;27.73;;;10.40;99.00;;;;;;5074760;28;20436;-64
2021/12/07 08:26:46;;;;;;;48.92;28.48;;;10.50;99.00;;;;;;5075001;28;20028;-65
2021/12/07 08:29:12;;;;;;;52.13;29.52;;;10.50;98.80;;;;;;5074529;28;20070;-64
2021/12/07 08:31:37;;;;;;;57.08;28.50;;;10.40;98.60;;;;;;5074243;28;20356;-64
2021/12/07 08:34:03;;;;;;;50.42;28.13;;;10.40;98.70;;;;;;5074022;28;20025;-64
2021/12/07 08:36:29;;;;;;;49.45;27.23;;;10.40;98.70;;;;;;5073082;28;20025;-65
2021/12/07 08:38:56;;;;;;;42.67;24.80;;;10.40;98.80;;;;;;5074458;28;20021;-64
2021/12/07 08:41:21;;;;;;;49.30;26.85;;;10.40;99.00;;;;;;5074052;28;20017;-64
2021/12/07 08:43:47;;;;;;;45.83;25.90;;;10.40;99.00;;;;;;5074179;28;20054;-65
2021/12/07 08:46:15;;;;;;;40.78;23.17;;;10.40;98.90;;;;;;5074855;28;20051;-64
2021/12/07 08:48:42;;;;;;;39.00;22.90;;;10.40;98.90;;;;;;5072758;28;20023;-63
2021/12/07 08:51:09;;;;;;;38.17;23.88;;;10.50;98.80;;;;;;5073849;28;20115;-64
2021/12/07 08:53:44;;;;;;;40.72;24.40;;;10.50;98.50;;;;;;5073729;28;20108;-64
2021/12/07 08:59:55;;;;;;;51.65;29.35;;;10.40;98.30;;;;;;5073850;28;20078;-64
2021/12/07 09:01:50;;;;;;;51.42;29.25;;;10.30;98.40;;;;;;5068904;28;20498;-65
2021/12/07 09:04:17;;;;;;;46.50;25.08;;;10.30;98.70;;;;;;5073808;28;20426;-63
2021/12/07 09:06:45;;;;;;;47.95;25.10;;;10.30;99.00;;;;;;5073877;28;20025;-65
2021/12/07 09:09:11;;;;;;;44.25;24.45;;;10.30;99.00;;;;;;5077006;28;20063;-64
2021/12/07 09:11:37;;;;;;;48.10;26.50;;;10.30;99.00;;;;;;5073769;28;20048;-64
2021/12/07 09:14:03;;;;;;;48.42;26.60;;;10.30;99.00;;;;;;5073358;28;20040;-65
2021/12/07 09:16:28;;;;;;;50.85;28.35;;;10.30;99.00;;;;;;5073506;28;20081;-65
2021/12/07 09:18:54;;;;;;;46.80;26.60;;;10.30;98.80;;;;;;5073422;28;20021;-65
2021/12/07 09:21:21;;;;;;;42.67;24.13;;;10.30;98.80;;;;;;5073394;28;20521;-65
2021/12/07 09:23:47;;;;;;;40.80;21.90;;;10.30;98.90;;;;;;5073356;28;20046;-65
2021/12/07 09:26:13;;;;;;;35.15;20.50;;;10.30;99.10;;;;;;5073304;28;20021;-65
2021/12/07 09:28:40;;;;;;;29.48;18.17;;;10.30;99.20;;;;;;5073174;28;20032;-65
2021/12/07 09:31:07;;;;;;;28.65;16.98;;;10.30;99.40;;;;;;5072573;28;20028;-64
2021/12/07 09:33:33;;;;;;;35.03;20.58;;;10.30;99.60;;;;;;5072867;28;20039;-63
2021/12/07 09:36:00;;;;;;;34.83;19.80;;;10.40;99.60;;;;;;5073350;28;20024;-63
2021/12/07 09:38:26;;;;;;;31.50;18.65;;;10.30;99.50;;;;;;5073450;28;20056;-65
2021/12/07 09:40:53;;;;;;;36.00;19.27;;;10.40;99.60;;;;;;5072955;28;20493;-65
2021/12/07 09:43:19;;;;;;;36.15;20.70;;;10.40;99.60;;;;;;5073148;28;20103;-65
2021/12/07 09:45:45;;;;;;;36.50;20.23;;;10.40;99.50;;;;;;5073031;28;20029;-64
2021/12/07 09:48:12;;;;;;;31.58;18.40;;;10.40;99.20;;;;;;5072978;28;20043;-63
2021/12/07 09:50:43;;;;;;;30.73;17.77;;;10.40;99.20;;;;;;5072721;28;20050;-65
2021/12/07 09:53:10;;;;;;;30.63;16.95;;;10.30;99.30;;;;;;5073006;28;20029;-64
2021/12/07 09:55:38;;;;;;;30.30;16.85;;;10.30;99.40;;;;;;5073089;28;20028;-65
2021/12/07 09:58:05;;;;;;;31.88;18.08;;;10.30;99.50;;;;;;5072849;28;20116;-64
2021/12/07 10:00:31;;;;;;;29.10;17.70;;;10.40;99.50;;;;;;5072665;28;20070;-65
2021/12/07 10:02:57;;;;;;;28.48;16.48;;;10.30;99.50;;;;;;5073230;28;20032;-65
2021/12/07 10:05:26;;;;;;;34.45;20.15;;;10.30;99.60;;;;;;5072814;28;20063;-66
2021/12/07 10:07:52;;;;;;;30.13;18.63;;;10.40;99.60;;;;;;5072824;28;20043;-65
2021/12/07 10:10:33;;;;;;;31.27;18.55;;;10.40;99.60;;;;;;5072536;28;20039;-66
2021/12/07 10:13:00;;;;;;;30.90;19.02;;;10.40;99.60;;;;;;5072298;28;20051;-66
2021/12/07 10:15:26;;;;;;;27.83;17.23;;;10.40;99.70;;;;;;5072371;28;20024;-65
2021/12/07 10:18:23;;;;;;;36.20;23.00;;;10.40;99.90;;;;;;5072589;28;20020;-66
2021/12/07 10:20:53;;;;;;;31.95;19.23;;;10.50;99.90;;;;;;5055951;28;20483;-65
2021/12/07 10:23:21;;;;;;;32.28;21.13;;;10.50;99.90;;;;;;5072111;28;20056;-66
2021/12/07 10:25:57;;;;;;;33.72;19.85;;;10.60;99.90;;;;;;5072097;28;20033;-66
2021/12/07 10:28:29;;;;;;;30.65;19.00;;;10.60;99.90;;;;;;5072200;28;20029;-64
2021/12/07 10:31:08;;;;;;;27.88;17.85;;;10.60;99.90;;;;;;5072412;28;20558;-66
2021/12/07 10:33:43;;;;;;;28.73;17.77;;;10.60;99.90;;;;;;5071863;28;20419;-66
2021/12/07 10:36:13;;;;;;;34.45;21.13;;;10.60;99.90;;;;;;5071782;28;20101;-64
2021/12/07 10:38:39;;;;;;;34.33;20.75;;;10.70;99.90;;;;;;5072367;28;20190;-65
2021/12/07 10:41:08;;;;;;;30.55;19.95;;;10.70;99.90;;;;;;5070768;28;20031;-66
2021/12/07 10:43:52;;;;;;;34.25;21.20;;;10.70;99.90;;;;;;5071801;28;20483;-65
2021/12/07 10:46:32;;;;;;;32.92;21.40;;;10.70;99.90;;;;;;5071565;28;20028;-65
2021/12/07 10:49:10;;;;;;;32.47;20.15;;;10.70;99.90;;;;;;5071697;28;20407;-65
2021/12/07 10:51:37;;;;;;;32.88;21.23;;;10.70;99.90;;;;;;5071908;28;20035;-65
2021/12/07 10:54:05;;;;;;;37.53;24.25;;;10.70;99.90;;;;;;5071796;28;20471;-65
2021/12/07 10:56:38;;;;;;;37.42;24.98;;;10.70;99.90;;;;;;5071653;28;20141;-65
2021/12/07 10:59:07;;;;;;;34.22;21.20;;;10.70;99.70;;;;;;5072322;28;20020;-65
2021/12/07 11:01:40;;;;;;;27.65;18.98;;;10.70;99.90;;;;;;5072667;28;20032;-68
2021/12/07 11:04:28;;;;;;;30.50;20.42;;;10.70;99.60;;;;;;5071800;28;20020;-65
2021/12/07 11:07:05;;;;;;;30.45;18.38;;;10.60;98.90;;;;;;5072352;28;20396;-65
2021/12/07 11:09:48;;;;;;;30.92;19.83;;;10.50;99.00;;;;;;5071428;28;20021;-64
2021/12/07 11:12:19;;;;;;;31.13;20.08;;;10.50;99.10;;;;;;5071480;28;20109;-64
2021/12/07 11:14:51;;;;;;;36.00;23.15;;;10.40;99.40;;;;;;5071099;28;20017;-65
2021/12/07 11:17:29;;;;;;;37.28;23.42;;;10.40;99.60;;;;;;5071213;28;20016;-66
2021/12/07 11:19:55;;;;;;;41.40;25.77;;;10.40;99.80;;;;;;5071512;28;20472;-66
2021/12/07 11:22:28;;;;;;;44.28;28.23;;;10.40;99.80;;;;;;5071375;28;20510;-65
2021/12/07 11:24:55;;;;;;;44.88;28.27;;;10.40;99.60;;;;;;5071261;28;20100;-66
2021/12/07 11:30:11;;;;;;;50.20;30.50;;;10.40;99.60;;;;;;5072010;28;20047;-65
2021/12/07 11:32:40;;;;;;;44.13;28.70;;;10.40;99.80;;;;;;5071197;28;20530;-65
2021/12/07 11:35:17;;;;;;;46.42;29.63;;;10.40;99.90;;;;;;5071376;28;20435;-65
2021/12/07 11:37:45;;;;;;;55.22;31.85;;;10.50;99.90;;;;;;5071336;28;20108;-64
2021/12/07 11:40:14;;;;;;;48.85;30.40;;;10.50;99.90;;;;;;5071091;28;20021;-65
2021/12/07 11:42:42;;;;;;;47.28;30.00;;;10.50;99.90;;;;;;5071140;28;20032;-63
2021/12/07 11:45:10;;;;;;;47.05;29.10;;;10.60;99.90;;;;;;5071481;28;20132;-64
2021/12/07 11:47:45;;;;;;;50.67;31.90;;;10.60;99.90;;;;;;5071437;28;20090;-64
2021/12/07 11:50:38;;;;;;;45.10;28.73;;;10.60;99.90;;;;;;5071199;28;20107;-65
2021/12/07 11:53:08;;;;;;;56.83;34.90;;;10.70;99.90;;;;;;5070901;28;20025;-66
2021/12/07 11:55:36;;;;;;;68.60;38.58;;;10.70;99.90;;;;;;5073251;28;20025;-68
2021/12/07 11:58:06;;;;;;;74.30;42.17;;;10.80;99.90;;;;;;5074990;28;20024;-65
2021/12/07 12:00:42;;;;;;;80.38;44.38;;;10.80;99.80;;;;;;5075576;28;20028;-66
2021/12/07 12:03:11;;;;;;;70.22;41.75;;;10.80;99.90;;;;;;5074921;28;20039;-63
2021/12/07 12:05:40;;;;;;;64.13;36.20;;;10.80;99.90;;;;;;5074883;28;20035;-65
2021/12/07 12:08:09;;;;;;;77.70;43.50;;;10.90;99.90;;;;;;5074627;28;20029;-64
2021/12/07 12:10:38;;;;;;;70.50;41.97;;;10.90;99.80;;;;;;5074675;28;20099;-64
2021/12/07 12:13:31;;;;;;;75.47;41.28;;;10.90;99.80;;;;;;5074680;28;20041;-65
2021/12/07 12:16:25;;;;;;;88.82;46.70;;;10.90;99.80;;;;;;5074934;28;20055;-65
2021/12/07 12:18:59;;;;;;;82.07;45.13;;;10.90;99.70;;;;;;5074083;28;20021;-64
2021/12/07 12:21:44;;;;;;;79.65;43.75;;;10.90;99.80;;;;;;5074247;28;20349;-64
2021/12/07 12:24:45;;;;;;;66.15;39.70;;;10.90;99.60;;;;;;5074282;28;20020;-63
2021/12/07 12:27:18;;;;;;;54.97;34.95;;;10.90;99.50;;;;;;5074521;28;20111;-65
2021/12/07 12:29:46;;;;;;;47.88;31.77;;;10.90;99.50;;;;;;5074475;28;20039;-65
2021/12/07 12:32:12;;;;;;;46.67;29.10;;;10.90;99.50;;;;;;5074628;28;20024;-65
2021/12/07 12:34:48;;;;;;;38.42;25.15;;;10.90;99.60;;;;;;5074107;28;20368;-64
2021/12/07 12:37:22;;;;;;;36.45;24.67;;;10.90;99.50;;;;;;5074353;28;20434;-64
2021/12/07 12:40:09;;;;;;;34.00;22.33;;;10.90;99.60;;;;;;5074188;28;20119;-63
2021/12/07 12:42:40;;;;;;;27.95;19.95;;;10.90;99.50;;;;;;5074435;28;20021;-64
2021/12/07 12:45:19;;;;;;;25.88;18.75;;;10.90;99.70;;;;;;5074066;28;20365;-65
2021/12/07 12:47:52;;;;;;;26.95;17.95;;;10.90;99.70;;;;;;5075593;28;20020;-64
2021/12/07 12:50:24;;;;;;;27.73;18.63;;;10.90;99.80;;;;;;5074005;28;20078;-65
2021/12/07 12:52:57;;;;;;;26.15;19.40;;;10.90;99.80;;;;;;5073873;28;20021;-64
2021/12/07 12:55:46;;;;;;;26.20;19.33;;;10.90;99.80;;;;;;5074107;28;20032;-64
2021/12/07 12:58:30;;;;;;;28.85;19.65;;;10.90;99.70;;;;;;5073703;28;20020;-65
2021/12/07 13:00:57;;;;;;;27.27;18.80;;;10.90;99.80;;;;;;5073671;28;20066;-66
2021/12/07 13:03:23;;;;;;;25.08;18.90;;;10.90;99.80;;;;;;5073720;28;20028;-64
2021/12/07 13:06:01;;;;;;;31.90;21.63;;;10.90;99.80;;;;;;5073540;28;20036;-65
2021/12/07 13:08:27;;;;;;;31.20;22.55;;;10.90;99.70;;;;;;5073949;28;20028;-64
2021/12/07 13:11:04;;;;;;;28.33;19.92;;;10.90;99.70;;;;;;5073885;28;20472;-64
2021/12/07 13:13:33;;;;;;;31.20;21.67;;;10.90;99.70;;;;;;5073538;28;20041;-65
2021/12/07 13:16:12;;;;;;;31.98;22.17;;;10.90;99.60;;;;;;5073450;28;20024;-63
2021/12/07 13:18:40;;;;;;;32.80;22.73;;;10.90;99.30;;;;;;5073350;28;20060;-66
2021/12/07 13:21:18;;;;;;;31.17;20.50;;;10.80;99.10;;;;;;5073650;28;20078;-64
2021/12/07 13:24:01;;;;;;;28.15;18.60;;;10.80;98.90;;;;;;5073544;28;20488;-64
2021/12/07 13:26:26;;;;;;;25.30;17.35;;;10.60;98.60;;;;;;5073383;28;20029;-64
2021/12/07 13:29:15;;;;;;;26.17;17.25;;;10.50;97.50;;;;;;5073231;28;20533;-63
2021/12/07 13:31:45;;;;;;;24.13;15.65;;;10.20;97.30;;;;;;5073256;28;20452;-65
2021/12/07 13:34:16;;;;;;;21.35;14.77;;;10.00;97.30;;;;;;5073118;28;20035;-66
2021/12/07 13:37:03;;;;;;;22.13;14.85;;;9.90;97.60;;;;;;5073222;28;20021;-65
2021/12/07 13:39:56;;;;;;;19.30;12.75;;;9.70;97.50;;;;;;5073199;28;20025;-65
2021/12/07 13:42:25;;;;;;;20.20;13.00;;;9.60;97.70;;;;;;5073389;28;20036;-65
2021/12/07 13:45:03;;;;;;;19.52;12.43;;;9.50;98.00;;;;;;5073529;28;20119;-66
2021/12/07 13:47:40;;;;;;;17.58;11.40;;;9.40;98.10;;;;;;5073032;28;20482;-65
2021/12/07 13:50:29;;;;;;;19.77;12.57;;;9.30;98.40;;;;;;5072981;28;20075;-65
2021/12/07 13:52:56;;;;;;;18.08;11.98;;;9.20;98.30;;;;;;5072678;28;20025;-65
2021/12/07 13:55:28;;;;;;;17.13;11.38;;;9.10;98.30;;;;;;5072928;28;20031;-65
2021/12/07 13:57:55;;;;;;;16.83;10.73;;;9.00;98.30;;;;;;5072960;28;20455;-65
2021/12/07 14:00:26;;;;;;;17.30;11.43;;;9.00;98.40;;;;;;5072888;28;20127;-65
2021/12/07 14:02:55;;;;;;;15.63;10.45;;;8.90;98.40;;;;;;5072877;28;20024;-65
2021/12/07 14:05:33;;;;;;;16.17;10.85;;;8.80;98.50;;;;;;5072850;28;20025;-65
2021/12/07 14:08:05;;;;;;;18.17;11.10;;;8.80;98.40;;;;;;5072755;28;20094;-65
2021/12/07 14:10:41;;;;;;;16.42;11.18;;;8.70;98.20;;;;;;5072632;28;20032;-64
2021/12/07 14:13:07;;;;;;;18.48;11.52;;;8.60;98.10;;;;;;5072547;28;20032;-65
2021/12/07 14:15:36;;;;;;;18.02;11.48;;;8.50;97.40;;;;;;5072565;28;20105;-65
2021/12/07 14:18:11;;;;;;;16.98;11.82;;;8.40;97.10;;;;;;5070719;28;20020;-66
2021/12/07 14:20:42;;;;;;;16.35;11.13;;;8.20;97.10;;;;;;5072964;28;20025;-65
2021/12/07 14:23:28;;;;;;;14.80;10.35;;;8.10;97.60;;;;;;5072227;28;20514;-65
2021/12/07 14:26:07;;;;;;;13.95;9.52;;;8.10;98.00;;;;;;5072559;28;20029;-65
2021/12/07 14:28:39;;;;;;;14.90;9.93;;;8.00;97.60;;;;;;5072305;28;20036;-66
2021/12/07 14:31:11;;;;;;;14.13;10.00;;;7.90;97.80;;;;;;5072229;28;20107;-64
2021/12/07 14:33:40;;;;;;;15.37;10.57;;;7.80;97.40;;;;;;5072114;28;20021;-66
2021/12/07 14:36:06;;;;;;;11.43;8.40;;;7.70;97.20;;;;;;5071983;28;20024;-65
2021/12/07 14:38:33;;;;;;;12.60;8.50;;;7.60;97.60;;;;;;5072021;28;20023;-66
2021/12/07 14:41:08;;;;;;;13.10;9.43;;;7.50;97.40;;;;;;5071974;28;20020;-65
2021/12/07 14:43:37;;;;;;;13.30;9.20;;;7.50;97.50;;;;;;5071933;28;20154;-64
2021/12/07 14:46:05;;;;;;;12.90;8.80;;;7.40;97.40;;;;;;5071849;28;20111;-64
2021/12/07 14:48:31;;;;;;;12.02;7.97;;;7.30;97.60;;;;;;5071870;28;20031;-65